sensor_id;sensor_type;location;lat;lon;timestamp;P1;durP1;ratioP1;P2;durP2;ratioP2
52798;SDS011;38667;42.872;74.622;2023-07-29T00:01:02;22.73;;;7.22;;
52798;SDS011;38667;42.872;74.622;2023-07-29T00:03:29;13.88;;;6.53;;
52798;SDS011;38667;42.872;74.622;2023-07-29T00:05:55;15.88;;;6.40;;
52798;SDS011;38667;42.872;74.622;2023-07-29T00:08:21;23.17;;;7.05;;
52798;SDS011;38667;42.872;74.622;2023-07-29T00:10:48;27.20;;;6.88;;
52798;SDS011;38667;42.872;74.622;2023-07-29T00:13:16;14.40;;;6.95;;
52798;SDS011;38667;42.872;74.622;2023-07-29T00:15:42;19.77;;;6.55;;
52798;SDS011;38667;42.872;74.622;2023-07-29T00:18:08;15.95;;;6.93;;
52798;SDS011;38667;42.872;74.622;2023-07-29T00:20:35;23.65;;;7.70;;
52798;SDS011;38667;42.872;74.622;2023-07-29T00:23:01;19.40;;;7.88;;
52798;SDS011;38667;42.872;74.622;2023-07-29T00:25:27;23.30;;;8.10;;
52798;SDS011;38667;42.872;74.622;2023-07-29T00:27:54;20.05;;;7.72;;
52798;SDS011;38667;42.872;74.622;2023-07-29T00:30:22;19.27;;;7.43;;
52798;SDS011;38667;42.872;74.622;2023-07-29T00:32:49;19.55;;;7.70;;
52798;SDS011;38667;42.872;74.622;2023-07-29T00:35:15;17.15;;;7.50;;
52798;SDS011;38667;42.872;74.622;2023-07-29T00:37:42;18.00;;;7.10;;
52798;SDS011;38667;42.872;74.622;2023-07-29T00:40:09;17.30;;;7.25;;
52798;SDS011;38667;42.872;74.622;2023-07-29T00:42:40;23.33;;;7.57;;
52798;SDS011;38667;42.872;74.622;2023-07-29T00:45:07;24.75;;;8.10;;
52798;SDS011;38667;42.872;74.622;2023-07-29T00:47:35;22.05;;;7.93;;
52798;SDS011;38667;42.872;74.622;2023-07-29T00:50:02;26.02;;;7.50;;
52798;SDS011;38667;42.872;74.622;2023-07-29T00:52:29;19.83;;;7.40;;
52798;SDS011;38667;42.872;74.622;2023-07-29T00:54:55;21.58;;;7.13;;
52798;SDS011;38667;42.872;74.622;2023-07-29T00:57:22;22.75;;;7.53;;
52798;SDS011;38667;42.872;74.622;2023-07-29T00:59:49;21.73;;;6.95;;
52798;SDS011;38667;42.872;74.622;2023-07-29T01:02:15;18.73;;;6.90;;
52798;SDS011;38667;42.872;74.622;2023-07-29T01:04:43;16.23;;;7.20;;
52798;SDS011;38667;42.872;74.622;2023-07-29T01:09:55;18.80;;;7.18;;
52798;SDS011;38667;42.872;74.622;2023-07-29T01:12:27;19.88;;;7.00;;
52798;SDS011;38667;42.872;74.622;2023-07-29T01:15:01;17.02;;;7.10;;
52798;SDS011;38667;42.872;74.622;2023-07-29T01:17:36;18.50;;;7.18;;
52798;SDS011;38667;42.872;74.622;2023-07-29T01:20:09;19.25;;;6.95;;
52798;SDS011;38667;42.872;74.622;2023-07-29T01:22:39;24.05;;;7.22;;
52798;SDS011;38667;42.872;74.622;2023-07-29T01:25:07;22.15;;;7.50;;
52798;SDS011;38667;42.872;74.622;2023-07-29T01:27:34;19.42;;;8.15;;
52798;SDS011;38667;42.872;74.622;2023-07-29T01:30:00;24.25;;;8.27;;
52798;SDS011;38667;42.872;74.622;2023-07-29T01:32:29;19.42;;;7.05;;
52798;SDS011;38667;42.872;74.622;2023-07-29T01:35:03;20.33;;;7.28;;
52798;SDS011;38667;42.872;74.622;2023-07-29T01:37:34;18.75;;;7.10;;
52798;SDS011;38667;42.872;74.622;2023-07-29T01:40:02;15.55;;;6.80;;
52798;SDS011;38667;42.872;74.622;2023-07-29T01:42:33;19.40;;;6.05;;
52798;SDS011;38667;42.872;74.622;2023-07-29T01:45:00;15.65;;;6.20;;
52798;SDS011;38667;42.872;74.622;2023-07-29T01:47:26;14.70;;;6.05;;
52798;SDS011;38667;42.872;74.622;2023-07-29T01:49:53;16.77;;;6.00;;
52798;SDS011;38667;42.872;74.622;2023-07-29T01:52:19;15.90;;;5.43;;
52798;SDS011;38667;42.872;74.622;2023-07-29T01:54:45;19.65;;;6.10;;
52798;SDS011;38667;42.872;74.622;2023-07-29T01:57:12;19.10;;;7.22;;
52798;SDS011;38667;42.872;74.622;2023-07-29T01:59:39;13.77;;;6.80;;
52798;SDS011;38667;42.872;74.622;2023-07-29T02:02:06;18.13;;;6.75;;
52798;SDS011;38667;42.872;74.622;2023-07-29T02:04:32;16.63;;;6.22;;
52798;SDS011;38667;42.872;74.622;2023-07-29T02:06:58;13.27;;;6.72;;
52798;SDS011;38667;42.872;74.622;2023-07-29T02:09:25;16.95;;;6.40;;
52798;SDS011;38667;42.872;74.622;2023-07-29T02:11:51;20.17;;;6.75;;
52798;SDS011;38667;42.872;74.622;2023-07-29T02:14:17;16.02;;;5.85;;
52798;SDS011;38667;42.872;74.622;2023-07-29T02:16:45;14.32;;;5.53;;
52798;SDS011;38667;42.872;74.622;2023-07-29T02:19:11;12.77;;;5.47;;
52798;SDS011;38667;42.872;74.622;2023-07-29T02:21:38;17.33;;;6.18;;
52798;SDS011;38667;42.872;74.622;2023-07-29T02:24:04;11.75;;;5.45;;
52798;SDS011;38667;42.872;74.622;2023-07-29T02:26:30;14.75;;;5.43;;
52798;SDS011;38667;42.872;74.622;2023-07-29T02:28:57;11.80;;;5.80;;
52798;SDS011;38667;42.872;74.622;2023-07-29T02:31:24;16.05;;;6.15;;
52798;SDS011;38667;42.872;74.622;2023-07-29T02:33:52;13.48;;;5.40;;
52798;SDS011;38667;42.872;74.622;2023-07-29T02:36:18;15.57;;;5.85;;
52798;SDS011;38667;42.872;74.622;2023-07-29T02:38:44;11.27;;;5.15;;
52798;SDS011;38667;42.872;74.622;2023-07-29T02:41:11;12.98;;;5.30;;
52798;SDS011;38667;42.872;74.622;2023-07-29T02:43:37;15.63;;;6.07;;
52798;SDS011;38667;42.872;74.622;2023-07-29T02:46:04;23.63;;;6.75;;
52798;SDS011;38667;42.872;74.622;2023-07-29T02:48:30;22.02;;;6.90;;
52798;SDS011;38667;42.872;74.622;2023-07-29T02:50:58;28.90;;;8.27;;
52798;SDS011;38667;42.872;74.622;2023-07-29T02:53:24;33.15;;;8.82;;
52798;SDS011;38667;42.872;74.622;2023-07-29T02:55:50;35.53;;;8.30;;
52798;SDS011;38667;42.872;74.622;2023-07-29T02:58:17;37.95;;;8.52;;
52798;SDS011;38667;42.872;74.622;2023-07-29T03:00:43;39.80;;;9.50;;
52798;SDS011;38667;42.872;74.622;2023-07-29T03:03:09;27.80;;;8.68;;
52798;SDS011;38667;42.872;74.622;2023-07-29T03:05:36;38.03;;;9.77;;
52798;SDS011;38667;42.872;74.622;2023-07-29T03:08:05;40.50;;;11.50;;
52798;SDS011;38667;42.872;74.622;2023-07-29T03:10:31;50.75;;;12.63;;
52798;SDS011;38667;42.872;74.622;2023-07-29T03:12:59;42.40;;;10.75;;
52798;SDS011;38667;42.872;74.622;2023-07-29T03:15:26;46.28;;;11.32;;
52798;SDS011;38667;42.872;74.622;2023-07-29T03:17:52;31.92;;;9.77;;
52798;SDS011;38667;42.872;74.622;2023-07-29T03:20:19;33.67;;;9.98;;
52798;SDS011;38667;42.872;74.622;2023-07-29T03:22:45;34.55;;;10.18;;
52798;SDS011;38667;42.872;74.622;2023-07-29T03:25:14;32.03;;;10.52;;
52798;SDS011;38667;42.872;74.622;2023-07-29T03:27:40;25.83;;;8.63;;
52798;SDS011;38667;42.872;74.622;2023-07-29T03:30:07;27.50;;;7.90;;
52798;SDS011;38667;42.872;74.622;2023-07-29T03:32:33;28.13;;;8.48;;
52798;SDS011;38667;42.872;74.622;2023-07-29T03:35:00;28.85;;;8.48;;
52798;SDS011;38667;42.872;74.622;2023-07-29T03:37:26;20.60;;;7.05;;
52798;SDS011;38667;42.872;74.622;2023-07-29T03:39:52;23.33;;;7.65;;
52798;SDS011;38667;42.872;74.622;2023-07-29T03:42:20;18.77;;;6.70;;
52798;SDS011;38667;42.872;74.622;2023-07-29T03:44:46;19.23;;;6.63;;
52798;SDS011;38667;42.872;74.622;2023-07-29T03:47:13;16.60;;;6.43;;
52798;SDS011;38667;42.872;74.622;2023-07-29T03:49:39;17.88;;;6.60;;
52798;SDS011;38667;42.872;74.622;2023-07-29T03:52:06;16.45;;;6.43;;
52798;SDS011;38667;42.872;74.622;2023-07-29T03:54:32;16.52;;;5.75;;
52798;SDS011;38667;42.872;74.622;2023-07-29T03:56:58;16.45;;;6.47;;
52798;SDS011;38667;42.872;74.622;2023-07-29T03:59:26;11.45;;;6.07;;
52798;SDS011;38667;42.872;74.622;2023-07-29T04:01:53;16.65;;;5.95;;
52798;SDS011;38667;42.872;74.622;2023-07-29T04:04:19;16.60;;;6.80;;
52798;SDS011;38667;42.872;74.622;2023-07-29T04:06:45;12.55;;;5.22;;
52798;SDS011;38667;42.872;74.622;2023-07-29T04:09:12;13.30;;;5.85;;
52798;SDS011;38667;42.872;74.622;2023-07-29T04:11:38;11.90;;;5.68;;
52798;SDS011;38667;42.872;74.622;2023-07-29T04:14:04;18.20;;;5.95;;
52798;SDS011;38667;42.872;74.622;2023-07-29T04:16:32;20.60;;;5.45;;
52798;SDS011;38667;42.872;74.622;2023-07-29T04:18:59;25.48;;;5.68;;
52798;SDS011;38667;42.872;74.622;2023-07-29T04:21:25;21.73;;;6.13;;
52798;SDS011;38667;42.872;74.622;2023-07-29T04:23:52;29.33;;;7.35;;
52798;SDS011;38667;42.872;74.622;2023-07-29T04:26:18;19.95;;;6.78;;
52798;SDS011;38667;42.872;74.622;2023-07-29T04:28:44;31.30;;;6.78;;
52798;SDS011;38667;42.872;74.622;2023-07-29T04:31:11;32.85;;;7.70;;
52798;SDS011;38667;42.872;74.622;2023-07-29T04:33:39;29.77;;;6.78;;
52798;SDS011;38667;42.872;74.622;2023-07-29T04:36:05;25.88;;;7.00;;
52798;SDS011;38667;42.872;74.622;2023-07-29T04:38:32;25.00;;;6.18;;
52798;SDS011;38667;42.872;74.622;2023-07-29T04:40:58;30.35;;;7.05;;
52798;SDS011;38667;42.872;74.622;2023-07-29T04:43:26;34.10;;;7.50;;
52798;SDS011;38667;42.872;74.622;2023-07-29T04:45:53;36.67;;;7.25;;
52798;SDS011;38667;42.872;74.622;2023-07-29T04:48:19;30.38;;;7.45;;
52798;SDS011;38667;42.872;74.622;2023-07-29T04:50:47;19.27;;;6.03;;
52798;SDS011;38667;42.872;74.622;2023-07-29T04:53:14;29.52;;;7.03;;
52798;SDS011;38667;42.872;74.622;2023-07-29T04:55:41;39.83;;;7.20;;
52798;SDS011;38667;42.872;74.622;2023-07-29T04:58:07;14.38;;;4.88;;
52798;SDS011;38667;42.872;74.622;2023-07-29T05:00:34;11.52;;;3.75;;
52798;SDS011;38667;42.872;74.622;2023-07-29T05:03:00;15.60;;;4.45;;
52798;SDS011;38667;42.872;74.622;2023-07-29T05:05:26;7.55;;;3.70;;
52798;SDS011;38667;42.872;74.622;2023-07-29T05:07:54;8.05;;;4.45;;
52798;SDS011;38667;42.872;74.622;2023-07-29T05:10:21;8.98;;;4.05;;
52798;SDS011;38667;42.872;74.622;2023-07-29T05:12:47;9.73;;;3.90;;
52798;SDS011;38667;42.872;74.622;2023-07-29T05:15:13;9.43;;;4.50;;
52798;SDS011;38667;42.872;74.622;2023-07-29T05:17:40;10.15;;;3.97;;
52798;SDS011;38667;42.872;74.622;2023-07-29T05:20:07;9.27;;;3.95;;
52798;SDS011;38667;42.872;74.622;2023-07-29T05:22:34;9.65;;;4.90;;
52798;SDS011;38667;42.872;74.622;2023-07-29T05:25:01;13.75;;;4.53;;
52798;SDS011;38667;42.872;74.622;2023-07-29T05:27:28;7.70;;;4.43;;
52798;SDS011;38667;42.872;74.622;2023-07-29T05:29:55;14.05;;;5.35;;
52798;SDS011;38667;42.872;74.622;2023-07-29T05:32:21;10.25;;;4.68;;
52798;SDS011;38667;42.872;74.622;2023-07-29T05:34:47;11.90;;;5.65;;
52798;SDS011;38667;42.872;74.622;2023-07-29T05:37:14;19.30;;;6.07;;
52798;SDS011;38667;42.872;74.622;2023-07-29T05:39:40;10.93;;;5.55;;
52798;SDS011;38667;42.872;74.622;2023-07-29T05:42:08;7.55;;;4.43;;
52798;SDS011;38667;42.872;74.622;2023-07-29T05:44:34;13.70;;;4.88;;
52798;SDS011;38667;42.872;74.622;2023-07-29T05:47:01;13.23;;;6.60;;
52798;SDS011;38667;42.872;74.622;2023-07-29T05:49:27;10.68;;;5.32;;
52798;SDS011;38667;42.872;74.622;2023-07-29T05:51:53;9.45;;;4.25;;
52798;SDS011;38667;42.872;74.622;2023-07-29T05:54:19;15.88;;;8.85;;
52798;SDS011;38667;42.872;74.622;2023-07-29T05:56:46;11.45;;;4.95;;
52798;SDS011;38667;42.872;74.622;2023-07-29T05:59:14;7.45;;;4.45;;
52798;SDS011;38667;42.872;74.622;2023-07-29T06:01:40;9.05;;;4.15;;
52798;SDS011;38667;42.872;74.622;2023-07-29T06:04:06;8.60;;;3.53;;
52798;SDS011;38667;42.872;74.622;2023-07-29T06:06:33;11.70;;;3.88;;
52798;SDS011;38667;42.872;74.622;2023-07-29T06:08:59;11.52;;;3.50;;
52798;SDS011;38667;42.872;74.622;2023-07-29T06:11:25;15.27;;;3.65;;
52798;SDS011;38667;42.872;74.622;2023-07-29T06:13:52;13.07;;;3.60;;
52798;SDS011;38667;42.872;74.622;2023-07-29T06:16:19;12.88;;;3.03;;
52798;SDS011;38667;42.872;74.622;2023-07-29T06:18:46;12.18;;;3.83;;
52798;SDS011;38667;42.872;74.622;2023-07-29T06:21:12;9.77;;;3.13;;
52798;SDS011;38667;42.872;74.622;2023-07-29T06:23:39;8.27;;;3.25;;
52798;SDS011;38667;42.872;74.622;2023-07-29T06:26:05;11.32;;;3.30;;
52798;SDS011;38667;42.872;74.622;2023-07-29T06:28:31;12.80;;;3.35;;
52798;SDS011;38667;42.872;74.622;2023-07-29T06:30:57;11.63;;;3.45;;
52798;SDS011;38667;42.872;74.622;2023-07-29T06:33:25;6.32;;;3.13;;
52798;SDS011;38667;42.872;74.622;2023-07-29T06:35:52;12.80;;;4.05;;
52798;SDS011;38667;42.872;74.622;2023-07-29T06:38:18;9.02;;;3.60;;
52798;SDS011;38667;42.872;74.622;2023-07-29T06:40:44;5.53;;;2.75;;
52798;SDS011;38667;42.872;74.622;2023-07-29T06:43:11;10.60;;;3.22;;
52798;SDS011;38667;42.872;74.622;2023-07-29T06:45:37;11.63;;;3.35;;
52798;SDS011;38667;42.872;74.622;2023-07-29T06:48:04;7.97;;;2.92;;
52798;SDS011;38667;42.872;74.622;2023-07-29T06:50:32;8.02;;;3.30;;
52798;SDS011;38667;42.872;74.622;2023-07-29T06:52:58;11.65;;;2.90;;
52798;SDS011;38667;42.872;74.622;2023-07-29T06:55:24;6.75;;;2.97;;
52798;SDS011;38667;42.872;74.622;2023-07-29T06:57:50;8.75;;;3.35;;
52798;SDS011;38667;42.872;74.622;2023-07-29T07:00:17;12.45;;;3.28;;
52798;SDS011;38667;42.872;74.622;2023-07-29T07:02:43;10.13;;;3.47;;
52798;SDS011;38667;42.872;74.622;2023-07-29T07:05:10;13.93;;;3.80;;
52798;SDS011;38667;42.872;74.622;2023-07-29T07:07:37;10.20;;;3.10;;
52798;SDS011;38667;42.872;74.622;2023-07-29T07:10:04;16.15;;;3.50;;
52798;SDS011;38667;42.872;74.622;2023-07-29T07:12:31;5.68;;;3.10;;
52798;SDS011;38667;42.872;74.622;2023-07-29T07:14:57;8.55;;;2.90;;
52798;SDS011;38667;42.872;74.622;2023-07-29T07:17:25;9.35;;;3.00;;
52798;SDS011;38667;42.872;74.622;2023-07-29T07:19:51;8.10;;;2.97;;
52798;SDS011;38667;42.872;74.622;2023-07-29T07:22:18;7.07;;;2.53;;
52798;SDS011;38667;42.872;74.622;2023-07-29T07:24:46;9.43;;;2.83;;
52798;SDS011;38667;42.872;74.622;2023-07-29T07:27:12;7.07;;;2.88;;
52798;SDS011;38667;42.872;74.622;2023-07-29T07:29:38;7.80;;;2.80;;
52798;SDS011;38667;42.872;74.622;2023-07-29T07:32:05;4.55;;;2.78;;
52798;SDS011;38667;42.872;74.622;2023-07-29T07:34:31;8.07;;;3.97;;
52798;SDS011;38667;42.872;74.622;2023-07-29T07:36:58;5.22;;;2.83;;
52798;SDS011;38667;42.872;74.622;2023-07-29T07:39:24;15.40;;;5.10;;
52798;SDS011;38667;42.872;74.622;2023-07-29T07:41:52;9.93;;;3.30;;
52798;SDS011;38667;42.872;74.622;2023-07-29T07:44:18;18.45;;;4.70;;
52798;SDS011;38667;42.872;74.622;2023-07-29T07:46:44;6.30;;;2.97;;
52798;SDS011;38667;42.872;74.622;2023-07-29T07:49:11;4.25;;;2.65;;
52798;SDS011;38667;42.872;74.622;2023-07-29T07:51:37;6.97;;;2.55;;
52798;SDS011;38667;42.872;74.622;2023-07-29T07:54:03;5.13;;;2.55;;
52798;SDS011;38667;42.872;74.622;2023-07-29T07:56:30;16.23;;;2.90;;
52798;SDS011;38667;42.872;74.622;2023-07-29T07:58:58;4.95;;;2.65;;
52798;SDS011;38667;42.872;74.622;2023-07-29T08:01:24;3.90;;;2.75;;
52798;SDS011;38667;42.872;74.622;2023-07-29T08:03:50;7.68;;;3.78;;
52798;SDS011;38667;42.872;74.622;2023-07-29T08:06:17;8.20;;;3.42;;
52798;SDS011;38667;42.872;74.622;2023-07-29T08:08:43;5.13;;;2.90;;
52798;SDS011;38667;42.872;74.622;2023-07-29T08:11:09;8.20;;;2.58;;
52798;SDS011;38667;42.872;74.622;2023-07-29T08:13:36;6.47;;;2.60;;
52798;SDS011;38667;42.872;74.622;2023-07-29T08:16:04;5.10;;;2.10;;
52798;SDS011;38667;42.872;74.622;2023-07-29T08:18:30;5.93;;;2.80;;
52798;SDS011;38667;42.872;74.622;2023-07-29T08:20:57;4.10;;;3.08;;
52798;SDS011;38667;42.872;74.622;2023-07-29T08:23:24;7.40;;;2.25;;
52798;SDS011;38667;42.872;74.622;2023-07-29T08:25:52;11.55;;;2.63;;
52798;SDS011;38667;42.872;74.622;2023-07-29T08:28:18;4.80;;;2.30;;
52798;SDS011;38667;42.872;74.622;2023-07-29T08:30:45;6.55;;;2.30;;
52798;SDS011;38667;42.872;74.622;2023-07-29T08:33:13;7.22;;;2.75;;
52798;SDS011;38667;42.872;74.622;2023-07-29T08:35:39;7.38;;;2.47;;
52798;SDS011;38667;42.872;74.622;2023-07-29T08:38:06;4.82;;;2.55;;
52798;SDS011;38667;42.872;74.622;2023-07-29T08:40:32;10.15;;;2.70;;
52798;SDS011;38667;42.872;74.622;2023-07-29T08:43:03;6.47;;;2.92;;
52798;SDS011;38667;42.872;74.622;2023-07-29T08:45:30;8.70;;;2.58;;
52798;SDS011;38667;42.872;74.622;2023-07-29T08:47:58;9.93;;;2.90;;
52798;SDS011;38667;42.872;74.622;2023-07-29T08:50:29;8.40;;;2.78;;
52798;SDS011;38667;42.872;74.622;2023-07-29T08:52:57;12.95;;;2.67;;
52798;SDS011;38667;42.872;74.622;2023-07-29T08:55:24;7.03;;;2.50;;
52798;SDS011;38667;42.872;74.622;2023-07-29T08:57:51;7.82;;;2.70;;
52798;SDS011;38667;42.872;74.622;2023-07-29T09:00:19;6.72;;;2.40;;
52798;SDS011;38667;42.872;74.622;2023-07-29T09:02:45;6.85;;;2.45;;
52798;SDS011;38667;42.872;74.622;2023-07-29T09:05:12;7.65;;;2.55;;
52798;SDS011;38667;42.872;74.622;2023-07-29T09:07:40;5.82;;;2.30;;
52798;SDS011;38667;42.872;74.622;2023-07-29T09:10:08;6.82;;;2.60;;
52798;SDS011;38667;42.872;74.622;2023-07-29T09:12:35;8.80;;;2.65;;
52798;SDS011;38667;42.872;74.622;2023-07-29T09:15:01;4.53;;;2.08;;
52798;SDS011;38667;42.872;74.622;2023-07-29T09:17:30;4.05;;;2.50;;
52798;SDS011;38667;42.872;74.622;2023-07-29T09:19:57;7.38;;;2.40;;
52798;SDS011;38667;42.872;74.622;2023-07-29T09:22:24;6.68;;;2.45;;
52798;SDS011;38667;42.872;74.622;2023-07-29T09:24:54;9.80;;;2.92;;
52798;SDS011;38667;42.872;74.622;2023-07-29T09:27:26;4.68;;;1.95;;
52798;SDS011;38667;42.872;74.622;2023-07-29T09:29:53;4.50;;;2.10;;
52798;SDS011;38667;42.872;74.622;2023-07-29T09:32:20;9.48;;;2.58;;
52798;SDS011;38667;42.872;74.622;2023-07-29T09:34:47;7.75;;;3.05;;
52798;SDS011;38667;42.872;74.622;2023-07-29T09:37:16;13.13;;;3.13;;
52798;SDS011;38667;42.872;74.622;2023-07-29T09:39:44;8.05;;;3.40;;
52798;SDS011;38667;42.872;74.622;2023-07-29T09:42:14;7.57;;;2.88;;
52798;SDS011;38667;42.872;74.622;2023-07-29T09:44:42;5.90;;;2.38;;
52798;SDS011;38667;42.872;74.622;2023-07-29T09:47:09;5.47;;;2.78;;
52798;SDS011;38667;42.872;74.622;2023-07-29T09:49:43;7.35;;;2.53;;
52798;SDS011;38667;42.872;74.622;2023-07-29T09:52:10;5.57;;;2.45;;
52798;SDS011;38667;42.872;74.622;2023-07-29T09:54:36;6.00;;;2.25;;
52798;SDS011;38667;42.872;74.622;2023-07-29T09:57:03;5.28;;;2.13;;
52798;SDS011;38667;42.872;74.622;2023-07-29T09:59:35;11.45;;;2.45;;
52798;SDS011;38667;42.872;74.622;2023-07-29T10:02:01;5.93;;;2.28;;
52798;SDS011;38667;42.872;74.622;2023-07-29T10:04:28;5.65;;;2.58;;
52798;SDS011;38667;42.872;74.622;2023-07-29T10:06:56;8.05;;;2.65;;
52798;SDS011;38667;42.872;74.622;2023-07-29T10:09:24;9.35;;;2.30;;
52798;SDS011;38667;42.872;74.622;2023-07-29T10:11:52;4.90;;;2.38;;
52798;SDS011;38667;42.872;74.622;2023-07-29T10:14:18;9.40;;;2.58;;
52798;SDS011;38667;42.872;74.622;2023-07-29T10:16:46;6.65;;;2.42;;
52798;SDS011;38667;42.872;74.622;2023-07-29T10:19:14;9.98;;;2.30;;
52798;SDS011;38667;42.872;74.622;2023-07-29T10:21:41;7.50;;;2.25;;
52798;SDS011;38667;42.872;74.622;2023-07-29T10:24:14;7.00;;;2.55;;
52798;SDS011;38667;42.872;74.622;2023-07-29T10:26:43;3.83;;;1.88;;
52798;SDS011;38667;42.872;74.622;2023-07-29T10:29:12;5.93;;;3.10;;
52798;SDS011;38667;42.872;74.622;2023-07-29T10:31:39;5.18;;;2.30;;
52798;SDS011;38667;42.872;74.622;2023-07-29T10:34:09;6.32;;;2.45;;
52798;SDS011;38667;42.872;74.622;2023-07-29T10:36:37;7.72;;;2.70;;
52798;SDS011;38667;42.872;74.622;2023-07-29T10:39:05;10.65;;;3.00;;
52798;SDS011;38667;42.872;74.622;2023-07-29T10:47:20;5.57;;;4.20;;
52798;SDS011;38667;42.872;74.622;2023-07-29T10:49:50;9.90;;;3.25;;
52798;SDS011;38667;42.872;74.622;2023-07-29T10:52:27;13.88;;;3.03;;
52798;SDS011;38667;42.872;74.622;2023-07-29T10:54:55;5.43;;;3.38;;
52798;SDS011;38667;42.872;74.622;2023-07-29T10:57:30;4.30;;;2.92;;
52798;SDS011;38667;42.872;74.622;2023-07-29T10:59:57;4.97;;;2.67;;
52798;SDS011;38667;42.872;74.622;2023-07-29T11:02:28;7.70;;;2.70;;
52798;SDS011;38667;42.872;74.622;2023-07-29T11:04:57;6.45;;;2.40;;
52798;SDS011;38667;42.872;74.622;2023-07-29T11:07:24;6.30;;;2.22;;
52798;SDS011;38667;42.872;74.622;2023-07-29T11:09:52;4.72;;;2.38;;
52798;SDS011;38667;42.872;74.622;2023-07-29T11:15:12;6.05;;;2.65;;
52798;SDS011;38667;42.872;74.622;2023-07-29T11:17:43;6.20;;;2.28;;
52798;SDS011;38667;42.872;74.622;2023-07-29T11:20:12;6.78;;;2.65;;
52798;SDS011;38667;42.872;74.622;2023-07-29T11:22:39;8.55;;;2.95;;
52798;SDS011;38667;42.872;74.622;2023-07-29T11:25:07;6.80;;;2.58;;
52798;SDS011;38667;42.872;74.622;2023-07-29T11:27:34;9.50;;;2.78;;
52798;SDS011;38667;42.872;74.622;2023-07-29T11:30:01;6.15;;;2.45;;
52798;SDS011;38667;42.872;74.622;2023-07-29T11:32:29;7.65;;;3.00;;
52798;SDS011;38667;42.872;74.622;2023-07-29T11:34:56;8.52;;;3.25;;
52798;SDS011;38667;42.872;74.622;2023-07-29T11:37:23;7.47;;;3.00;;
52798;SDS011;38667;42.872;74.622;2023-07-29T11:39:50;3.85;;;2.50;;
52798;SDS011;38667;42.872;74.622;2023-07-29T11:42:16;7.13;;;2.85;;
52798;SDS011;38667;42.872;74.622;2023-07-29T11:44:42;5.05;;;3.00;;
52798;SDS011;38667;42.872;74.622;2023-07-29T11:47:09;5.78;;;2.75;;
52798;SDS011;38667;42.872;74.622;2023-07-29T11:49:38;6.45;;;2.63;;
52798;SDS011;38667;42.872;74.622;2023-07-29T11:52:06;4.88;;;2.50;;
52798;SDS011;38667;42.872;74.622;2023-07-29T11:54:34;6.00;;;2.83;;
52798;SDS011;38667;42.872;74.622;2023-07-29T11:57:01;7.32;;;2.50;;
52798;SDS011;38667;42.872;74.622;2023-07-29T11:59:28;6.72;;;2.20;;
52798;SDS011;38667;42.872;74.622;2023-07-29T12:01:55;5.20;;;2.40;;
52798;SDS011;38667;42.872;74.622;2023-07-29T12:04:21;7.45;;;2.55;;
52798;SDS011;38667;42.872;74.622;2023-07-29T12:06:48;7.05;;;2.65;;
52798;SDS011;38667;42.872;74.622;2023-07-29T12:09:15;7.53;;;2.97;;
52798;SDS011;38667;42.872;74.622;2023-07-29T12:11:43;7.35;;;2.90;;
52798;SDS011;38667;42.872;74.622;2023-07-29T12:14:09;4.22;;;2.97;;
52798;SDS011;38667;42.872;74.622;2023-07-29T12:16:40;4.07;;;2.38;;
52798;SDS011;38667;42.872;74.622;2023-07-29T12:19:06;9.13;;;2.60;;
52798;SDS011;38667;42.872;74.622;2023-07-29T12:21:33;6.55;;;2.70;;
52798;SDS011;38667;42.872;74.622;2023-07-29T12:24:00;6.00;;;2.63;;
52798;SDS011;38667;42.872;74.622;2023-07-29T12:26:28;6.75;;;2.70;;
52798;SDS011;38667;42.872;74.622;2023-07-29T12:28:56;6.35;;;2.42;;
52798;SDS011;38667;42.872;74.622;2023-07-29T12:31:28;4.88;;;2.40;;
52798;SDS011;38667;42.872;74.622;2023-07-29T12:33:56;9.43;;;2.72;;
52798;SDS011;38667;42.872;74.622;2023-07-29T12:36:27;8.63;;;2.38;;
52798;SDS011;38667;42.872;74.622;2023-07-29T12:39:05;6.20;;;2.40;;
52798;SDS011;38667;42.872;74.622;2023-07-29T12:41:31;6.72;;;2.38;;
52798;SDS011;38667;42.872;74.622;2023-07-29T12:43:59;8.40;;;2.65;;
52798;SDS011;38667;42.872;74.622;2023-07-29T12:46:29;10.30;;;3.50;;
52798;SDS011;38667;42.872;74.622;2023-07-29T12:48:55;8.02;;;2.92;;
52798;SDS011;38667;42.872;74.622;2023-07-29T12:51:21;8.73;;;3.20;;
52798;SDS011;38667;42.872;74.622;2023-07-29T12:53:48;10.02;;;3.45;;
52798;SDS011;38667;42.872;74.622;2023-07-29T12:56:14;6.32;;;2.50;;
52798;SDS011;38667;42.872;74.622;2023-07-29T12:58:40;5.63;;;2.63;;
52798;SDS011;38667;42.872;74.622;2023-07-29T13:01:08;3.40;;;2.50;;
52798;SDS011;38667;42.872;74.622;2023-07-29T13:03:34;5.75;;;3.33;;
52798;SDS011;38667;42.872;74.622;2023-07-29T13:06:01;4.63;;;2.63;;
52798;SDS011;38667;42.872;74.622;2023-07-29T13:08:28;8.70;;;2.92;;
52798;SDS011;38667;42.872;74.622;2023-07-29T13:10:55;4.38;;;2.80;;
52798;SDS011;38667;42.872;74.622;2023-07-29T13:13:22;7.53;;;2.92;;
52798;SDS011;38667;42.872;74.622;2023-07-29T13:15:48;8.43;;;2.80;;
52798;SDS011;38667;42.872;74.622;2023-07-29T13:18:16;7.15;;;3.20;;
52798;SDS011;38667;42.872;74.622;2023-07-29T13:20:42;6.25;;;2.92;;
52798;SDS011;38667;42.872;74.622;2023-07-29T13:23:09;5.50;;;2.85;;
52798;SDS011;38667;42.872;74.622;2023-07-29T13:25:35;6.97;;;2.60;;
52798;SDS011;38667;42.872;74.622;2023-07-29T13:28:01;5.88;;;3.00;;
52798;SDS011;38667;42.872;74.622;2023-07-29T13:30:28;6.47;;;2.33;;
52798;SDS011;38667;42.872;74.622;2023-07-29T13:32:54;6.43;;;3.08;;
52798;SDS011;38667;42.872;74.622;2023-07-29T13:35:22;8.40;;;2.75;;
52798;SDS011;38667;42.872;74.622;2023-07-29T13:37:48;7.38;;;2.45;;
52798;SDS011;38667;42.872;74.622;2023-07-29T13:40:15;4.72;;;2.75;;
52798;SDS011;38667;42.872;74.622;2023-07-29T13:42:41;5.28;;;2.35;;
52798;SDS011;38667;42.872;74.622;2023-07-29T13:45:08;8.23;;;2.70;;
52798;SDS011;38667;42.872;74.622;2023-07-29T13:47:34;6.35;;;2.83;;
52798;SDS011;38667;42.872;74.622;2023-07-29T13:50:01;8.02;;;2.50;;
52798;SDS011;38667;42.872;74.622;2023-07-29T13:52:29;4.93;;;2.53;;
52798;SDS011;38667;42.872;74.622;2023-07-29T13:54:55;5.85;;;2.60;;
52798;SDS011;38667;42.872;74.622;2023-07-29T13:57:22;8.07;;;2.72;;
52798;SDS011;38667;42.872;74.622;2023-07-29T13:59:48;5.78;;;2.83;;
52798;SDS011;38667;42.872;74.622;2023-07-29T14:02:14;8.82;;;3.58;;
52798;SDS011;38667;42.872;74.622;2023-07-29T14:04:41;11.43;;;2.92;;
52798;SDS011;38667;42.872;74.622;2023-07-29T14:07:07;6.93;;;2.95;;
52798;SDS011;38667;42.872;74.622;2023-07-29T14:09:35;10.05;;;3.33;;
52798;SDS011;38667;42.872;74.622;2023-07-29T14:12:01;11.65;;;4.18;;
52798;SDS011;38667;42.872;74.622;2023-07-29T14:14:28;10.73;;;3.53;;
52798;SDS011;38667;42.872;74.622;2023-07-29T14:16:54;13.55;;;3.33;;
52798;SDS011;38667;42.872;74.622;2023-07-29T14:19:21;10.25;;;3.67;;
52798;SDS011;38667;42.872;74.622;2023-07-29T14:21:48;8.40;;;3.38;;
52798;SDS011;38667;42.872;74.622;2023-07-29T14:24:14;7.70;;;3.00;;
52798;SDS011;38667;42.872;74.622;2023-07-29T14:26:42;7.55;;;3.70;;
52798;SDS011;38667;42.872;74.622;2023-07-29T14:29:08;8.80;;;3.70;;
52798;SDS011;38667;42.872;74.622;2023-07-29T14:31:34;8.95;;;3.67;;
52798;SDS011;38667;42.872;74.622;2023-07-29T14:34:01;12.98;;;4.00;;
52798;SDS011;38667;42.872;74.622;2023-07-29T14:36:27;7.32;;;4.25;;
52798;SDS011;38667;42.872;74.622;2023-07-29T14:38:53;9.95;;;3.78;;